Time,TemperatureF,DewpointF,PressureIn,WindDirection,WindDirectionDegrees,WindSpeedMPH,WindSpeedGustMPH,Humidity,HourlyPrecipIn,Conditions,Clouds,dailyrainin,SoftwareType,DateUTC
2013-02-13 00:04:00,33.6,31.0,30.34,WNW,290,0.0,0.0,91,0.00,,,0.00,weatherlink.com 1.10,2013-02-13 08:04:00,
2013-02-13 00:19:00,33.4,31.0,30.34,WNW,290,0.0,0.0,91,0.00,,,0.00,weatherlink.com 1.10,2013-02-13 08:19:00,
2013-02-13 00:34:00,33.1,31.0,30.34,WNW,290,0.0,0.0,92,0.00,,,0.00,weatherlink.com 1.10,2013-02-13 08:34:00,
2013-02-13 00:49:00,32.8,31.0,30.33,WNW,290,0.0,0.0,91,0.00,,,0.00,weatherlink.com 1.10,2013-02-13 08:49:00,
2013-02-13 01:04:00,32.5,31.0,30.33,WNW,290,0.0,0.0,92,0.00,,,0.00,weatherlink.com 1.10,2013-02-13 09:04:00,
2013-02-13 01:19:00,32.3,30.0,30.33,WNW,290,0.0,0.0,92,0.00,,,0.00,weatherlink.com 1.10,2013-02-13 09:19:00,
2013-02-13 01:34:00,32.0,30.0,30.33,WNW,290,0.0,0.0,92,0.00,,,0.00,weatherlink.com 1.10,2013-02-13 09:34:00,
2013-02-13 01:49:00,32.0,30.0,30.33,WNW,290,0.0,0.0,92,0.00,,,0.00,weatherlink.com 1.10,2013-02-13 09:49:00,
2013-02-13 02:04:00,31.8,30.0,30.33,WNW,290,0.0,0.0,92,0.00,,,0.00,weatherlink.com 1.10,2013-02-13 10:04:00,
2013-02-13 02:19:00,31.7,30.0,30.33,WNW,290,0.0,0.0,92,0.00,,,0.00,weatherlink.com 1.10,2013-02-13 10:19:00,
2013-02-13 02:34:00,31.2,29.0,30.32,WNW,290,0.0,0.0,92,0.00,,,0.00,weatherlink.com 1.10,2013-02-13 10:34:00,
2013-02-13 02:49:00,30.7,29.0,30.32,WNW,290,0.0,0.0,92,0.00,,,0.00,weatherlink.com 1.10,2013-02-13 10:49:00,
2013-02-13 03:04:00,31.0,29.0,30.32,WNW,290,0.0,0.0,93,0.00,,,0.00,weatherlink.com 1.10,2013-02-13 11:04:00,
2013-02-13 03:19:00,30.6,29.0,30.32,WNW,290,0.0,0.0,93,0.00,,,0.00,weatherlink.com 1.10,2013-02-13 11:19:00,
2013-02-13 03:34:00,30.9,29.0,30.32,WNW,290,0.0,0.0,93,0.00,,,0.00,weatherlink.com 1.10,2013-02-13 11:34:00,
2013-02-13 03:50:00,30.7,29.0,30.31,WNW,290,0.0,0.0,93,0.00,,,0.00,weatherlink.com 1.10,2013-02-13 11:50:00,
2013-02-13 04:05:00,30.2,28.0,30.32,WNW,290,0.0,0.0,92,0.00,,,0.00,weatherlink.com 1.10,2013-02-13 12:05:00,
2013-02-13 04:20:00,30.0,28.0,30.32,WNW,290,0.0,0.0,92,0.00,,,0.00,weatherlink.com 1.10,2013-02-13 12:20:00,
2013-02-13 04:35:00,29.7,28.0,30.32,WNW,290,0.0,2.0,92,0.00,,,0.00,weatherlink.com 1.10,2013-02-13 12:35:00,
2013-02-13 04:50:00,29.3,27.0,30.32,WNW,290,0.0,1.0,92,0.00,,,0.00,weatherlink.com 1.10,2013-02-13 12:50:00,
2013-02-13 05:05:00,29.9,28.0,30.32,WNW,290,0.0,1.0,93,0.00,,,0.00,weatherlink.com 1.10,2013-02-13 13:05:00,
2013-02-13 05:20:00,29.5,28.0,30.32,WNW,290,1.0,1.0,93,0.00,,,0.00,weatherlink.com 1.10,2013-02-13 13:20:00,
2013-02-13 05:35:00,29.2,28.0,30.32,WNW,290,0.0,0.0,93,0.00,,,0.00,weatherlink.com 1.10,2013-02-13 13:35:00,
2013-02-13 05:50:00,29.2,28.0,30.32,WNW,290,0.0,0.0,93,0.00,,,0.00,weatherlink.com 1.10,2013-02-13 13:50:00,
2013-02-13 06:05:00,29.2,28.0,30.32,WNW,290,0.0,0.0,93,0.00,,,0.00,weatherlink.com 1.10,2013-02-13 14:05:00,
2013-02-13 06:20:00,28.9,27.0,30.32,WNW,290,0.0,0.0,93,0.00,,,0.00,weatherlink.com 1.10,2013-02-13 14:20:00,
2013-02-13 06:35:00,28.7,27.0,30.32,WNW,290,0.0,0.0,93,0.00,,,0.00,weatherlink.com 1.10,2013-02-13 14:35:00,
2013-02-13 06:50:00,28.8,27.0,30.33,WNW,290,0.0,0.0,93,0.00,,,0.00,weatherlink.com 1.10,2013-02-13 14:50:00,
2013-02-13 07:05:00,28.6,27.0,30.33,WNW,290,0.0,0.0,93,0.00,,,0.00,weatherlink.com 1.10,2013-02-13 15:05:00,
2013-02-13 07:20:00,28.5,27.0,30.33,WNW,290,0.0,0.0,93,0.00,,,0.00,weatherlink.com 1.10,2013-02-13 15:20:00,
2013-02-13 07:35:00,29.4,28.0,30.34,WNW,290,0.0,1.0,93,0.00,,,0.00,weatherlink.com 1.10,2013-02-13 15:35:00,
2013-02-13 07:50:00,30.5,29.0,30.34,WNW,290,0.0,0.0,93,0.00,,,0.00,weatherlink.com 1.10,2013-02-13 15:50:00,
2013-02-13 08:05:00,31.2,30.0,30.34,WNW,290,0.0,0.0,94,0.00,,,0.00,weatherlink.com 1.10,2013-02-13 16:05:00,
2013-02-13 08:20:00,33.7,32.0,30.34,WNW,290,0.0,0.0,94,0.00,,,0.00,weatherlink.com 1.10,2013-02-13 16:20:00,
2013-02-13 08:35:00,35.8,34.0,30.34,WNW,290,0.0,2.0,94,0.00,,,0.00,weatherlink.com 1.10,2013-02-13 16:35:00,
2013-02-13 08:50:00,37.5,36.0,30.34,WNW,288,0.0,1.0,94,0.00,,,0.00,weatherlink.com 1.10,2013-02-13 16:50:00,
2013-02-13 09:05:00,40.6,39.0,30.34,WNW,288,0.0,0.0,94,0.00,,,0.00,weatherlink.com 1.10,2013-02-13 17:05:00,
2013-02-13 09:20:00,43.3,40.0,30.35,NW,322,2.0,3.0,89,0.00,,,0.00,weatherlink.com 1.10,2013-02-13 17:20:00,
2013-02-13 09:35:00,44.5,41.0,30.34,NW,323,0.0,1.0,86,0.00,,,0.00,weatherlink.com 1.10,2013-02-13 17:35:00,
2013-02-13 09:50:00,47.6,42.0,30.34,NW,323,0.0,2.0,80,0.00,,,0.00,weatherlink.com 1.10,2013-02-13 17:50:00,
2013-02-13 10:05:00,48.1,41.0,30.34,SSW,204,1.0,4.0,76,0.00,,,0.00,weatherlink.com 1.10,2013-02-13 18:05:00,
2013-02-13 10:20:00,50.4,42.0,30.34,SSE,147,1.0,3.0,74,0.00,,,0.00,weatherlink.com 1.10,2013-02-13 18:20:00,
2013-02-13 10:35:00,52.1,43.0,30.34,SSE,163,1.0,3.0,71,0.00,,,0.00,weatherlink.com 1.10,2013-02-13 18:35:00,
2013-02-13 10:51:00,53.3,43.0,30.33,ESE,103,0.0,3.0,68,0.00,,,0.00,weatherlink.com 1.10,2013-02-13 18:51:00,
2013-02-13 11:06:00,54.9,43.0,30.33,ESE,113,1.0,3.0,65,0.00,,,0.00,weatherlink.com 1.10,2013-02-13 19:06:00,
2013-02-13 11:21:00,56.1,43.0,30.32,ESE,104,2.0,3.0,62,0.00,,,0.00,weatherlink.com 1.10,2013-02-13 19:21:00,
2013-02-13 11:36:00,57.6,44.0,30.32,SSE,148,2.0,5.0,61,0.00,,,0.00,weatherlink.com 1.10,2013-02-13 19:36:00,
2013-02-13 11:51:00,58.8,44.0,30.31,SSE,161,1.0,4.0,58,0.00,,,0.00,weatherlink.com 1.10,2013-02-13 19:51:00,
2013-02-13 12:06:00,59.7,45.0,30.31,SSE,151,1.0,5.0,59,0.00,,,0.00,weatherlink.com 1.10,2013-02-13 20:06:00,
2013-02-13 12:21:00,60.3,46.0,30.30,East,101,1.0,6.0,59,0.00,,,0.00,weatherlink.com 1.10,2013-02-13 20:21:00,
2013-02-13 12:36:00,60.6,46.0,30.29,SE,143,4.0,6.0,59,0.00,,,0.00,weatherlink.com 1.10,2013-02-13 20:36:00,
2013-02-13 12:51:00,61.3,46.0,30.28,ESE,112,2.0,6.0,57,0.00,,,0.00,weatherlink.com 1.10,2013-02-13 20:51:00,
2013-02-13 13:06:00,62.2,47.0,30.27,SE,132,0.0,7.0,57,0.00,,,0.00,weatherlink.com 1.10,2013-02-13 21:06:00,
2013-02-13 13:21:00,63.5,46.0,30.26,ESE,116,3.0,6.0,53,0.00,,,0.00,weatherlink.com 1.10,2013-02-13 21:21:00,
2013-02-13 13:36:00,64.2,46.0,30.25,East,101,2.0,8.0,52,0.00,,,0.00,weatherlink.com 1.10,2013-02-13 21:36:00,
2013-02-13 13:51:00,64.7,46.0,30.24,South,184,1.0,5.0,52,0.00,,,0.00,weatherlink.com 1.10,2013-02-13 21:51:00,
2013-02-13 14:06:00,64.9,47.0,30.23,SSE,156,5.0,6.0,52,0.00,,,0.00,weatherlink.com 1.10,2013-02-13 22:06:00,
2013-02-13 14:21:00,64.9,46.0,30.23,ESE,121,2.0,6.0,50,0.00,,,0.00,weatherlink.com 1.10,2013-02-13 22:21:00,
2013-02-13 14:36:00,65.4,45.0,30.22,SE,128,4.0,8.0,48,0.00,,,0.00,weatherlink.com 1.10,2013-02-13 22:36:00,
2013-02-13 14:51:00,65.4,47.0,30.22,South,187,4.0,7.0,51,0.00,,,0.00,weatherlink.com 1.10,2013-02-13 22:51:00,
2013-02-13 15:06:00,65.8,47.0,30.21,SSE,155,5.0,7.0,51,0.00,,,0.00,weatherlink.com 1.10,2013-02-13 23:06:00,
2013-02-13 15:22:00,64.8,47.0,30.21,SSE,162,7.0,9.0,53,0.00,,,0.00,weatherlink.com 1.10,2013-02-13 23:22:00,
2013-02-13 15:36:00,64.1,47.0,30.21,SE,146,4.0,8.0,54,0.00,,,0.00,weatherlink.com 1.10,2013-02-13 23:36:00,
2013-02-13 15:52:00,63.2,47.0,30.21,SE,142,4.0,7.0,55,0.00,,,0.00,weatherlink.com 1.10,2013-02-13 23:52:00,
2013-02-13 16:07:00,62.9,46.0,30.21,SSE,148,3.0,8.0,54,0.00,,,0.00,weatherlink.com 1.10,2013-02-14 00:07:00,
2013-02-13 16:22:00,62.4,46.0,30.21,SSE,164,2.0,7.0,56,0.00,,,0.00,weatherlink.com 1.10,2013-02-14 00:22:00,
2013-02-13 16:37:00,61.6,46.0,30.20,SE,145,4.0,8.0,58,0.00,,,0.00,weatherlink.com 1.10,2013-02-14 00:37:00,
2013-02-13 16:52:00,60.3,46.0,30.20,SSE,151,5.0,7.0,59,0.00,,,0.00,weatherlink.com 1.10,2013-02-14 00:52:00,
2013-02-13 17:07:00,58.3,45.0,30.20,SE,142,5.0,7.0,62,0.00,,,0.00,weatherlink.com 1.10,2013-02-14 01:07:00,
2013-02-13 17:22:00,56.9,45.0,30.20,SSE,168,1.0,5.0,65,0.00,,,0.00,weatherlink.com 1.10,2013-02-14 01:22:00,
2013-02-13 17:37:00,55.8,45.0,30.20,SE,146,3.0,3.0,67,0.00,,,0.00,weatherlink.com 1.10,2013-02-14 01:37:00,
2013-02-13 17:52:00,54.2,44.0,30.20,SE,146,0.0,3.0,69,0.00,,,0.00,weatherlink.com 1.10,2013-02-14 01:52:00,
2013-02-13 18:07:00,52.7,43.0,30.20,SE,146,1.0,1.0,70,0.00,,,0.00,weatherlink.com 1.10,2013-02-14 02:07:00,
2013-02-13 18:22:00,51.3,43.0,30.20,SE,146,0.0,0.0,72,0.00,,,0.00,weatherlink.com 1.10,2013-02-14 02:22:00,
2013-02-13 18:37:00,49.5,42.0,30.21,SE,146,0.0,0.0,75,0.00,,,0.00,weatherlink.com 1.10,2013-02-14 02:37:00,
2013-02-13 18:52:00,47.8,41.0,30.21,SE,146,0.0,0.0,78,0.00,,,0.00,weatherlink.com 1.10,2013-02-14 02:52:00,
2013-02-13 19:07:00,46.2,41.0,30.21,SE,146,0.0,0.0,81,0.00,,,0.00,weatherlink.com 1.10,2013-02-14 03:07:00,
2013-02-13 19:22:00,45.0,40.0,30.21,SE,146,0.0,0.0,83,0.00,,,0.00,weatherlink.com 1.10,2013-02-14 03:22:00,
2013-02-13 19:37:00,44.0,40.0,30.21,SE,146,0.0,0.0,85,0.00,,,0.00,weatherlink.com 1.10,2013-02-14 03:37:00,
2013-02-13 19:52:00,42.9,39.0,30.21,SE,146,0.0,0.0,85,0.00,,,0.00,weatherlink.com 1.10,2013-02-14 03:52:00,
2013-02-13 20:07:00,42.4,39.0,30.21,SE,146,0.0,0.0,87,0.00,,,0.00,weatherlink.com 1.10,2013-02-14 04:07:00,
2013-02-13 20:22:00,41.9,39.0,30.22,SE,146,0.0,0.0,89,0.00,,,0.00,weatherlink.com 1.10,2013-02-14 04:22:00,
2013-02-13 20:37:00,41.3,38.0,30.22,SE,146,0.0,0.0,88,0.00,,,0.00,weatherlink.com 1.10,2013-02-14 04:37:00,
2013-02-13 20:53:00,40.7,38.0,30.22,South,190,0.0,1.0,88,0.00,,,0.00,weatherlink.com 1.10,2013-02-14 04:53:00,
2013-02-13 21:07:00,40.2,37.0,30.22,South,190,0.0,0.0,89,0.00,,,0.00,weatherlink.com 1.10,2013-02-14 05:07:00,
2013-02-13 21:22:00,40.0,37.0,30.22,South,190,0.0,1.0,90,0.00,,,0.00,weatherlink.com 1.10,2013-02-14 05:22:00,
2013-02-13 21:37:00,39.5,37.0,30.22,South,190,0.0,0.0,90,0.00,,,0.00,weatherlink.com 1.10,2013-02-14 05:37:00,
2013-02-13 21:52:00,38.8,36.0,30.22,South,190,0.0,0.0,90,0.00,,,0.00,weatherlink.com 1.10,2013-02-14 05:52:00,
2013-02-13 22:07:00,38.0,35.0,30.23,South,190,0.0,0.0,90,0.00,,,0.00,weatherlink.com 1.10,2013-02-14 06:07:00,
2013-02-13 22:22:00,37.7,35.0,30.23,South,190,0.0,0.0,91,0.00,,,0.00,weatherlink.com 1.10,2013-02-14 06:22:00,
2013-02-13 22:37:00,37.7,36.0,30.23,South,190,0.0,1.0,92,0.00,,,0.00,weatherlink.com 1.10,2013-02-14 06:37:00,
2013-02-13 22:52:00,37.5,35.0,30.23,South,190,0.0,2.0,92,0.00,,,0.00,weatherlink.com 1.10,2013-02-14 06:52:00,
2013-02-13 23:07:00,37.3,35.0,30.23,South,190,0.0,0.0,92,0.00,,,0.00,weatherlink.com 1.10,2013-02-14 07:07:00,
2013-02-13 23:22:00,36.5,34.0,30.23,South,190,0.0,0.0,91,0.00,,,0.00,weatherlink.com 1.10,2013-02-14 07:22:00,
2013-02-13 23:37:00,36.1,34.0,30.23,South,190,0.0,1.0,92,0.00,,,0.00,weatherlink.com 1.10,2013-02-14 07:37:00,
2013-02-13 23:52:00,35.7,34.0,30.23,South,190,0.0,0.0,92,0.00,,,0.00,weatherlink.com 1.10,2013-02-14 07:52:00,